Time;durP1;ratioP1;P1;durP2;ratioP2;P2;SDS_P1;SDS_P2;PMS_P1;PMS_P2;Temp;Humidity;BMP_temperature;BMP_pressure;BME280_temperature;BME280_humidity;BME280_pressure;Samples;Min_cycle;Max_cycle;Signal;HPM_P1;HPM_P2
2021/06/02 00:01:56;;;;;;;3.10;2.90;;;;;;;15.45;75.21;101009.41;4995576;28;20298;-77
2021/06/02 00:04:25;;;;;;;3.50;3.10;;;;;;;15.46;75.28;101002.84;4996521;28;20213;-77
2021/06/02 00:06:56;;;;;;;3.30;3.00;;;;;;;15.44;75.70;101011.34;4992918;28;20320;-77
2021/06/02 00:09:22;;;;;;;4.00;2.90;;;;;;;15.41;76.11;101008.38;4996787;28;20295;-77
2021/06/02 00:11:48;;;;;;;7.00;3.17;;;;;;;15.46;76.69;101000.91;5011736;28;20228;-77
2021/06/02 00:14:15;;;;;;;4.03;3.28;;;;;;;15.49;76.76;100988.56;5012765;28;20238;-77
2021/06/02 00:16:41;;;;;;;3.50;3.20;;;;;;;15.55;76.66;101003.81;4996127;28;20232;-79
2021/06/02 00:19:08;;;;;;;4.07;2.92;;;;;;;15.51;77.29;100989.91;4996538;28;20188;-77
2021/06/02 00:21:34;;;;;;;3.78;3.40;;;;;;;15.49;77.71;100989.38;5012370;28;20232;-78
2021/06/02 00:24:05;;;;;;;4.47;3.30;;;;;;;15.48;77.52;100992.41;4997205;28;20219;-77
2021/06/02 00:26:33;;;;;;;5.00;3.33;;;;;;;15.39;78.59;100993.38;4996488;28;20271;-77
2021/06/02 00:29:02;;;;;;;3.92;3.22;;;;;;;15.32;78.01;100996.47;4981179;28;20250;-78
2021/06/02 00:31:28;;;;;;;3.22;2.70;;;;;;;15.30;77.81;100998.69;4995706;28;20320;-78
2021/06/02 00:33:54;;;;;;;4.28;2.70;;;;;;;15.21;77.96;100994.97;4978880;28;20204;-78
2021/06/02 00:36:21;;;;;;;3.58;3.08;;;;;;;15.19;78.23;100994.44;5012073;28;20232;-78
2021/06/02 00:38:46;;;;;;;3.85;2.90;;;;;;;15.21;78.51;101003.19;5013548;28;20195;-78
2021/06/02 00:41:16;;;;;;;3.80;2.80;;;;;;;15.38;77.09;101002.69;4996788;28;20585;-77
2021/06/02 00:43:41;;;;;;;4.05;2.53;;;;;;;15.39;76.05;101005.13;4995850;28;20978;-78
2021/06/02 00:46:10;;;;;;;2.80;2.60;;;;;;;15.29;76.11;101005.28;4996547;28;20228;-77
2021/06/02 00:48:38;;;;;;;3.35;2.63;;;;;;;15.08;77.38;101006.59;4981765;28;20197;-78
2021/06/02 00:51:08;;;;;;;3.10;2.72;;;;;;;15.11;76.78;101013.44;4994715;28;20225;-78
2021/06/02 00:53:36;;;;;;;2.95;2.65;;;;;;;15.10;76.28;101003.59;4980097;28;20180;-77
2021/06/02 00:56:07;;;;;;;3.40;2.58;;;;;;;15.12;76.17;101004.91;4996273;28;20224;-78
2021/06/02 00:58:45;;;;;;;3.15;2.40;;;;;;;15.10;75.25;101000.84;4995675;28;20192;-77
2021/06/02 01:01:10;;;;;;;2.95;1.90;;;;;;;15.23;74.85;101000.97;5011351;28;20227;-79
2021/06/02 01:03:38;;;;;;;4.47;2.10;;;;;;;15.14;74.21;101004.66;4995149;28;20216;-78
2021/06/02 01:06:06;;;;;;;2.60;2.40;;;;;;;15.07;74.68;101002.25;5011696;28;20706;-78
2021/06/02 01:08:32;;;;;;;2.72;2.15;;;;;;;15.16;74.35;101000.53;4980069;28;20189;-78
2021/06/02 01:10:59;;;;;;;2.13;1.92;;;;;;;15.15;73.54;101009.03;4995562;28;20235;-78
2021/06/02 01:13:27;;;;;;;2.70;1.90;;;;;;;15.15;73.23;101007.09;4995604;28;20592;-77
2021/06/02 01:15:53;;;;;;;2.08;1.98;;;;;;;15.14;73.02;101008.19;4995222;28;20228;-78
2021/06/02 01:18:19;;;;;;;1.90;1.80;;;;;;;15.07;72.67;101007.72;5011722;28;20231;-77
2021/06/02 01:20:47;;;;;;;1.87;1.77;;;;;;;15.00;71.70;101010.00;4994360;28;20232;-78
2021/06/02 01:23:12;;;;;;;2.20;1.70;;;;;;;14.90;72.57;101003.81;5011335;28;20634;-78
2021/06/02 01:25:41;;;;;;;2.65;1.52;;;;;;;14.92;72.15;100998.06;4991581;28;20224;-78
2021/06/02 01:28:09;;;;;;;2.00;1.60;;;;;;;14.92;71.98;100998.06;4978820;28;20243;-77
2021/06/02 01:30:37;;;;;;;2.07;1.70;;;;;;;14.77;71.86;101004.53;4996008;28;20225;-77
2021/06/02 01:33:29;;;;;;;1.50;1.40;;;;;;;14.78;71.95;101002.59;5015614;28;20195;-77
2021/06/02 01:36:03;;;;;;;2.47;1.50;;;;;;;14.77;71.63;101006.47;5013341;28;20287;-78
2021/06/02 01:38:51;;;;;;;3.90;1.40;;;;;;;14.82;71.36;101003.66;5015857;28;20211;-78
2021/06/02 01:41:50;;;;;;;3.50;1.17;;;;;;;14.88;70.43;100997.03;5000039;28;20758;-78
2021/06/02 01:44:38;;;;;;;2.20;1.23;;;;;;;14.80;70.20;101000.41;5013610;28;20208;-78
2021/06/02 01:47:06;;;;;;;2.23;1.13;;;;;;;14.76;70.48;100999.34;5011276;28;20268;-78
2021/06/02 01:49:53;;;;;;;1.70;1.60;;;;;;;14.79;70.82;101001.50;4994584;28;20215;-78
2021/06/02 01:52:41;;;;;;;1.42;1.30;;;;;;;14.74;70.95;101001.56;5011901;28;20703;-77
2021/06/02 01:55:14;;;;;;;2.00;1.10;;;;;;;14.78;70.24;101002.59;5024733;28;20567;-78
2021/06/02 01:58:11;;;;;;;1.58;1.10;;;;;;;14.69;70.39;100993.44;4994264;28;20212;-78
2021/06/02 02:01:13;;;;;;;1.77;1.00;;;;;;;14.51;70.95;100996.91;5009757;28;20223;-78
2021/06/02 02:03:59;;;;;;;1.17;1.08;;;;;;;14.45;71.65;100998.06;5010564;28;20300;-78
2021/06/02 02:06:47;;;;;;;2.10;1.10;;;;;;;14.48;71.73;100996.66;5010958;28;20311;-77
2021/06/02 02:09:23;;;;;;;2.78;1.10;;;;;;;14.53;71.50;101002.91;5011442;28;20195;-78
2021/06/02 02:11:48;;;;;;;1.90;1.10;;;;;;;14.35;72.01;100995.41;5010684;28;20231;-79
2021/06/02 02:14:39;;;;;;;1.77;1.10;;;;;;;14.49;71.41;100996.38;4980847;28;20188;-80
2021/06/02 02:17:24;;;;;;;1.70;0.80;;;;;;;14.39;70.70;100985.53;4995414;28;20224;-77
2021/06/02 02:19:58;;;;;;;2.30;1.00;;;;;;;14.55;70.97;100988.94;4977781;28;20176;-77
2021/06/02 02:23:02;;;;;;;2.07;0.93;;;;;;;14.44;71.80;100996.41;5009751;28;20256;-77
2021/06/02 02:26:18;;;;;;;1.13;1.03;;;;;;;14.38;72.30;100996.78;5009540;28;20294;-77
2021/06/02 02:28:56;;;;;;;1.37;0.90;;;;;;;14.31;72.21;101001.75;4992428;28;20675;-78
2021/06/02 02:31:52;;;;;;;2.37;1.00;;;;;;;14.23;72.91;100995.00;4979426;28;20271;-77
2021/06/02 02:34:56;;;;;;;1.80;0.90;;;;;;;14.06;73.35;100998.44;5009607;28;20196;-77
2021/06/02 02:37:52;;;;;;;0.87;0.87;;;;;;;14.04;74.05;101008.84;5008841;28;20291;-78
2021/06/02 02:40:48;;;;;;;1.53;1.00;;;;;;;13.96;74.21;101012.16;4994293;28;20578;-77
2021/06/02 02:43:54;;;;;;;1.53;0.93;;;;;;;13.95;74.49;101013.25;5008952;28;20201;-77
2021/06/02 02:46:40;;;;;;;1.97;1.00;;;;;;;13.90;74.57;101005.13;5009255;28;20229;-78
2021/06/02 02:49:05;;;;;;;0.90;0.77;;;;;;;13.96;74.77;101006.69;4979149;28;20192;-78
2021/06/02 02:52:08;;;;;;;1.00;0.83;;;;;;;13.91;74.93;101007.53;5009760;28;20232;-78
2021/06/02 02:54:51;;;;;;;1.03;1.03;;;;;;;13.79;75.24;101008.19;5010566;28;20197;-77
2021/06/02 02:57:23;;;;;;;0.90;0.90;;;;;;;13.59;77.05;101011.09;4994940;28;20225;-76
2021/06/02 03:00:09;;;;;;;1.27;0.80;;;;;;;13.49;77.54;101013.84;4979922;28;20197;-77
2021/06/02 03:02:55;;;;;;;1.60;0.80;;;;;;;13.44;78.00;101007.59;4997772;28;20224;-78
2021/06/02 03:05:24;;;;;;;2.70;0.80;;;;;;;13.51;78.33;101017.91;5015395;28;20185;-78
2021/06/02 03:08:14;;;;;;;1.80;0.87;;;;;;;13.48;78.62;101015.78;5015135;28;20570;-77
2021/06/02 03:10:45;;;;;;;2.50;1.00;;;;;;;13.47;79.11;101022.31;4996863;28;20247;-77
2021/06/02 03:13:22;;;;;;;1.13;0.80;;;;;;;13.52;78.71;101019.56;4996614;28;20181;-78
2021/06/02 03:15:51;;;;;;;1.50;0.93;;;;;;;13.57;78.59;101018.69;4996918;28;20233;-78
2021/06/02 03:18:28;;;;;;;1.47;1.10;;;;;;;13.45;79.25;101017.44;5013481;28;20205;-78
2021/06/02 03:21:24;;;;;;;1.17;0.80;;;;;;;13.55;78.83;101018.19;5003653;28;20239;-77
2021/06/02 03:24:04;;;;;;;3.07;0.70;;;;;;;13.45;79.83;101018.25;4994012;28;20217;-78
2021/06/02 03:26:36;;;;;;;2.20;0.90;;;;;;;13.38;81.05;101009.56;4981239;28;20229;-78
2021/06/02 03:29:14;;;;;;;2.33;0.80;;;;;;;13.51;80.11;101015.19;4981099;28;21017;-78
2021/06/02 03:32:01;;;;;;;1.57;0.83;;;;;;;13.51;80.51;101007.00;5012474;28;20220;-78
2021/06/02 03:34:35;;;;;;;1.33;1.00;;;;;;;13.51;80.72;101007.00;5011203;28;20185;-78
2021/06/02 03:37:06;;;;;;;0.77;0.70;;;;;;;13.45;80.52;101021.78;5009522;28;20236;-77
2021/06/02 03:39:42;;;;;;;1.43;0.70;;;;;;;13.46;80.83;101023.44;5013042;28;20165;-79
2021/06/02 03:42:14;;;;;;;2.47;0.80;;;;;;;13.43;81.37;101022.38;5010295;28;20228;-78
2021/06/02 03:44:50;;;;;;;1.10;0.90;;;;;;;13.43;82.45;101022.38;4996111;28;20679;-78
2021/06/02 03:47:34;;;;;;;1.53;0.83;;;;;;;13.37;81.73;101031.66;4987736;28;20319;-78
2021/06/02 03:50:16;;;;;;;0.80;0.80;;;;;;;13.58;81.51;101012.97;5011010;28;20191;-79
2021/06/02 03:52:48;;;;;;;0.63;0.60;;;;;;;13.65;81.38;101010.75;5011988;28;20691;-77
2021/06/02 03:55:40;;;;;;;1.20;0.80;;;;;;;13.90;79.91;101021.50;5010729;28;20208;-78
2021/06/02 03:58:10;;;;;;;0.77;0.70;;;;;;;14.15;79.40;101013.13;5008373;28;20248;-77
2021/06/02 04:00:41;;;;;;;0.97;0.90;;;;;;;14.02;79.47;101011.03;5010423;28;20647;-78
2021/06/02 04:03:22;;;;;;;1.10;0.80;;;;;;;13.93;79.24;101015.44;4974952;28;20220;-78
2021/06/02 04:05:49;;;;;;;1.77;0.80;;;;;;;14.08;78.55;101018.88;4974723;28;20296;-78
2021/06/02 04:08:25;;;;;;;1.43;0.90;;;;;;;14.14;78.34;101012.31;4960328;28;20209;-78
2021/06/02 04:10:54;;;;;;;1.63;0.90;;;;;;;14.15;78.26;101013.13;4975159;28;20232;-78
2021/06/02 04:13:43;;;;;;;2.10;0.90;;;;;;;13.97;79.02;101027.44;4986262;28;20185;-78
2021/06/02 04:16:14;;;;;;;3.90;0.80;;;;;;;13.89;79.46;101025.31;5011674;28;20252;-79
2021/06/02 04:18:42;;;;;;;1.87;1.00;;;;;;;13.87;79.58;101030.25;4980166;28;20272;-78
2021/06/02 04:21:08;;;;;;;0.70;0.60;;;;;;;13.84;80.44;101017.16;4996120;28;20220;-78
2021/06/02 04:23:36;;;;;;;1.33;0.90;;;;;;;13.95;80.47;101024.16;4979017;28;20216;-78
2021/06/02 04:26:04;;;;;;;1.07;0.97;;;;;;;13.86;80.14;101018.53;5011028;28;20240;-78
2021/06/02 04:28:36;;;;;;;1.23;0.90;;;;;;;14.04;79.59;101027.97;4979104;28;20251;-78
2021/06/02 04:31:06;;;;;;;0.80;0.80;;;;;;;13.88;79.62;101015.47;4988494;28;20725;-79
2021/06/02 04:33:33;;;;;;;1.45;0.90;;;;;;;13.92;80.01;101019.28;4992654;28;20658;-79
2021/06/02 04:36:05;;;;;;;1.00;0.90;;;;;;;14.01;79.98;101023.03;4994252;28;20252;-78
2021/06/02 04:38:32;;;;;;;0.93;0.90;;;;;;;13.96;80.21;101021.16;4979104;28;20189;-77
2021/06/02 04:41:06;;;;;;;1.33;0.70;;;;;;;14.09;79.09;101022.47;4994610;28;20235;-78
2021/06/02 04:43:33;;;;;;;3.20;2.50;;;;;;;14.22;78.98;101024.53;4978033;28;20244;-78
2021/06/02 04:46:02;;;;;;;1.97;1.57;;;;;;;14.34;77.68;101021.13;4990041;28;20244;-78
2021/06/02 04:48:27;;;;;;;1.20;0.90;;;;;;;14.23;78.69;101020.69;5000071;28;20678;-77
2021/06/02 04:51:18;;;;;;;1.60;0.83;;;;;;;14.17;78.29;101038.22;5014807;28;20227;-78
2021/06/02 04:54:17;;;;;;;1.97;0.90;;;;;;;13.94;80.23;101028.00;5019338;28;20191;-77
2021/06/02 04:56:51;;;;;;;1.00;0.80;;;;;;;14.29;78.56;101032.09;5030027;28;20232;-77
2021/06/02 04:59:48;;;;;;;1.73;0.80;;;;;;;14.28;78.61;101030.50;5030648;28;20187;-76
2021/06/02 05:02:38;;;;;;;1.43;0.87;;;;;;;14.44;77.69;101039.34;5014906;28;20311;-77
2021/06/02 05:05:13;;;;;;;1.87;0.80;;;;;;;14.66;77.62;101041.28;5029995;28;20223;-76
2021/06/02 05:08:05;;;;;;;0.87;0.77;;;;;;;14.60;76.57;101046.31;5030202;28;20212;-77
2021/06/02 05:11:12;;;;;;;1.00;0.80;;;;;;;14.73;76.74;101038.22;5013474;28;20212;-77
2021/06/02 05:14:08;;;;;;;0.90;0.90;;;;;;;15.10;76.01;101045.44;5028214;28;20172;-77
2021/06/02 05:16:50;;;;;;;0.80;0.80;;;;;;;15.09;74.93;101043.81;5023770;28;20306;-77
2021/06/02 05:22:19;;;;;;;9.82;5.30;;;;;;;15.24;74.13;101040.94;4990718;28;20229;-76
2021/06/02 05:25:03;;;;;;;2.50;1.10;;;;;;;15.37;73.06;101039.41;4975058;28;20304;-76
2021/06/02 05:28:08;;;;;;;0.70;0.70;;;;;;;15.54;72.92;101048.72;4990164;28;20229;-78
2021/06/02 05:31:00;;;;;;;1.50;1.25;;;;;;;15.42;73.04;101042.88;4990857;28;20240;-77
2021/06/02 05:34:03;;;;;;;1.10;1.00;;;;;;;15.17;72.87;101051.41;4991207;28;20185;-76
2021/06/02 05:36:40;;;;;;;1.63;0.95;;;;;;;15.12;73.20;101054.16;5002218;28;20805;-78
2021/06/02 05:39:20;;;;;;;1.58;0.90;;;;;;;15.31;74.40;101046.88;4990324;28;20203;-77
2021/06/02 05:41:54;;;;;;;1.48;0.90;;;;;;;15.46;73.07;101057.63;4956557;28;20229;-76
2021/06/02 05:44:51;;;;;;;2.05;1.10;;;;;;;15.43;70.91;101063.66;4988809;28;20264;-77
2021/06/02 05:47:55;;;;;;;2.10;1.10;;;;;;;15.35;71.98;101053.38;4990403;28;20295;-77
2021/06/02 05:50:33;;;;;;;1.65;1.00;;;;;;;15.61;71.84;101057.41;4975104;28;20671;-77
2021/06/02 05:53:36;;;;;;;2.63;1.10;;;;;;;16.05;70.42;101053.16;4995558;28;20239;-78
2021/06/02 05:56:26;;;;;;;2.58;0.88;;;;;;;15.77;71.00;101057.69;5001737;28;20248;-77
2021/06/02 05:59:21;;;;;;;1.35;0.80;;;;;;;15.68;69.49;101057.84;4998106;28;20190;-78
2021/06/02 06:01:56;;;;;;;1.20;0.90;;;;;;;15.52;69.49;101057.22;4990025;28;20621;-78
2021/06/02 06:04:57;;;;;;;2.65;1.15;;;;;;;15.87;69.10;101054.78;4958553;28;20209;-77
2021/06/02 06:07:43;;;;;;;1.48;1.00;;;;;;;16.05;67.89;101062.19;4990940;28;20964;-78
2021/06/02 06:10:43;;;;;;;1.70;0.82;;;;;;;15.51;67.70;101063.00;4992111;28;20260;-78
2021/06/02 06:13:39;;;;;;;1.48;0.90;;;;;;;15.63;69.40;101068.88;4984465;28;20184;-78
2021/06/02 06:16:28;;;;;;;0.95;0.90;;;;;;;15.56;69.32;101065.69;5009752;28;20228;-78
2021/06/02 06:19:41;;;;;;;2.60;1.15;;;;;;;15.63;68.88;101071.63;5010708;28;20209;-78
2021/06/02 06:22:21;;;;;;;3.28;1.25;;;;;;;15.74;68.32;101070.38;5008450;28;20225;-77
2021/06/02 06:25:02;;;;;;;2.92;0.95;;;;;;;15.81;67.47;101069.69;4993414;28;20212;-77
2021/06/02 06:27:41;;;;;;;1.55;1.05;;;;;;;15.88;67.44;101080.28;4960476;28;20749;-77
2021/06/02 06:30:13;;;;;;;1.75;1.10;;;;;;;15.95;67.26;101065.09;5008926;28;20180;-77
2021/06/02 06:32:41;;;;;;;2.00;1.00;;;;;;;16.13;67.00;101067.00;4976877;28;20178;-77
2021/06/02 06:35:07;;;;;;;3.47;0.95;;;;;;;16.14;64.82;101076.84;4992620;28;20223;-77
2021/06/02 06:37:36;;;;;;;1.08;0.80;;;;;;;16.40;65.19;101072.63;4996292;28;20204;-79
2021/06/02 06:40:08;;;;;;;1.35;0.77;;;;;;;16.63;64.19;101059.56;4981136;28;20204;-78
2021/06/02 06:42:39;;;;;;;1.67;1.00;;;;;;;16.67;62.95;101065.28;5013217;28;20209;-78
2021/06/02 06:45:11;;;;;;;1.20;1.10;;;;;;;16.61;62.44;101058.22;4982241;28;20208;-78
2021/06/02 06:47:37;;;;;;;2.08;1.10;;;;;;;16.70;61.70;101065.50;5014035;28;20259;-79
2021/06/02 06:50:08;;;;;;;1.92;0.90;;;;;;;16.56;61.67;101057.53;4981248;28;20193;-77
2021/06/02 06:52:36;;;;;;;3.20;1.00;;;;;;;16.63;62.08;101062.31;4980508;28;20247;-77
2021/06/02 06:55:03;;;;;;;3.45;1.30;;;;;;;16.55;62.00;101062.19;4980203;28;20193;-76
2021/06/02 06:57:31;;;;;;;1.55;1.00;;;;;;;16.69;62.87;101055.63;4964180;28;20295;-77
2021/06/02 06:59:58;;;;;;;2.10;0.90;;;;;;;16.88;61.73;101056.34;4980612;28;20200;-78
2021/06/02 07:02:24;;;;;;;4.30;0.82;;;;;;;17.26;61.29;101055.09;4979923;28;20228;-78
2021/06/02 07:04:52;;;;;;;1.17;0.98;;;;;;;17.10;59.94;101059.22;4980902;28;20216;-77
2021/06/02 07:07:18;;;;;;;3.38;1.50;;;;;;;17.09;60.80;101065.84;4979888;28;20781;-77
2021/06/02 07:09:43;;;;;;;1.75;1.10;;;;;;;16.89;60.20;101060.72;4980069;28;20201;-78
2021/06/02 07:12:12;;;;;;;4.07;1.00;;;;;;;16.85;61.12;101054.22;4995840;28;20227;-77
2021/06/02 07:14:42;;;;;;;2.55;0.95;;;;;;;17.06;60.03;101067.25;4980150;28;20196;-76
2021/06/02 07:17:10;;;;;;;2.25;0.98;;;;;;;17.39;59.70;101057.81;4995394;28;20263;-76
2021/06/02 07:19:44;;;;;;;3.13;1.58;;;;;;;17.63;59.25;101050.13;4980376;28;20181;-77
2021/06/02 07:22:12;;;;;;;1.50;0.90;;;;;;;17.69;57.20;101048.91;4979460;28;20228;-77
2021/06/02 07:24:37;;;;;;;1.58;1.27;;;;;;;17.90;58.31;101046.19;4981361;28;20224;-77
2021/06/02 07:27:03;;;;;;;1.10;0.90;;;;;;;17.94;57.70;101057.38;4990900;28;20243;-77
2021/06/02 07:29:31;;;;;;;1.40;0.85;;;;;;;18.07;56.24;101051.00;4978344;28;20193;-77
2021/06/02 07:32:00;;;;;;;3.80;1.00;;;;;;;18.01;56.56;101057.78;4975050;28;20283;-77
2021/06/02 07:34:26;;;;;;;1.90;1.00;;;;;;;18.12;56.58;101053.69;4979850;28;20200;-77
2021/06/02 07:36:51;;;;;;;1.00;1.00;;;;;;;18.28;55.95;101053.00;4995477;28;20236;-77
2021/06/02 07:39:17;;;;;;;1.50;1.00;;;;;;;18.17;54.20;101052.44;5012850;28;20176;-78
2021/06/02 07:41:43;;;;;;;1.33;1.20;;;;;;;18.17;56.53;101057.13;5028515;28;20220;-78
2021/06/02 07:44:08;;;;;;;0.90;0.90;;;;;;;18.27;56.03;101045.88;4980197;28;20217;-79
2021/06/02 07:46:36;;;;;;;2.13;0.85;;;;;;;18.29;56.48;101054.63;4995620;28;20235;-77
2021/06/02 07:49:03;;;;;;;1.90;0.90;;;;;;;18.45;55.64;101048.41;5011848;28;20725;-77
2021/06/02 07:51:28;;;;;;;1.02;0.95;;;;;;;18.63;56.90;101050.16;5011812;28;20240;-77
2021/06/02 07:53:54;;;;;;;0.90;0.90;;;;;;;18.21;55.45;101056.19;4994600;28;20185;-77
2021/06/02 07:56:22;;;;;;;1.67;1.20;;;;;;;18.20;57.57;101054.56;5010580;28;20255;-78
2021/06/02 07:58:49;;;;;;;2.70;1.10;;;;;;;18.48;56.93;101047.81;5011642;28;20193;-76
2021/06/02 08:01:20;;;;;;;3.47;1.27;;;;;;;18.67;55.17;101051.16;4995168;28;20593;-77
2021/06/02 08:03:45;;;;;;;1.75;0.90;;;;;;;18.99;53.28;101044.22;4986589;28;20213;-75
2021/06/02 08:06:11;;;;;;;2.35;1.02;;;;;;;18.35;55.46;101048.69;5012133;28;20224;-77
2021/06/02 08:08:44;;;;;;;2.08;0.98;;;;;;;18.66;56.49;101044.00;4995031;28;20189;-77
2021/06/02 08:11:11;;;;;;;2.55;1.38;;;;;;;18.70;56.27;101051.31;5010456;28;20252;-76
2021/06/02 08:13:37;;;;;;;1.20;1.05;;;;;;;18.91;55.39;101042.19;4992146;28;20601;-77
2021/06/02 08:16:03;;;;;;;1.17;1.00;;;;;;;18.69;55.29;101051.63;4994296;28;20282;-77
2021/06/02 08:18:32;;;;;;;1.45;1.35;;;;;;;18.43;56.55;101053.41;4994919;28;20201;-77
2021/06/02 08:20:57;;;;;;;2.80;1.50;;;;;;;18.72;55.86;101049.06;5010431;28;20653;-77
2021/06/02 08:23:23;;;;;;;2.15;1.45;;;;;;;18.75;56.65;101044.84;5010177;28;20213;-77
2021/06/02 08:25:50;;;;;;;2.00;1.35;;;;;;;19.19;56.77;101054.63;4994211;28;20590;-77
2021/06/02 08:28:16;;;;;;;1.83;1.33;;;;;;;19.63;56.04;101046.16;5010603;28;20209;-77
2021/06/02 08:30:41;;;;;;;1.52;1.30;;;;;;;19.91;54.14;101046.41;5010542;28;20231;-78
2021/06/02 08:33:08;;;;;;;2.22;1.70;;;;;;;20.08;53.77;101057.44;5010241;28;20185;-76
2021/06/02 08:35:36;;;;;;;3.85;1.58;;;;;;;20.11;53.80;101056.78;4994147;28;20232;-78
2021/06/02 08:38:03;;;;;;;1.50;1.40;;;;;;;20.09;54.17;101054.34;4994816;28;20351;-77
2021/06/02 08:40:28;;;;;;;1.48;1.38;;;;;;;20.16;54.83;101053.84;5009977;28;20223;-77
2021/06/02 08:42:56;;;;;;;1.95;1.20;;;;;;;19.99;53.36;101051.09;4994175;28;20192;-77
2021/06/02 08:45:21;;;;;;;1.50;1.40;;;;;;;20.51;53.21;101046.03;5012438;28;20323;-78
2021/06/02 08:47:49;;;;;;;1.88;1.70;;;;;;;20.38;54.49;101048.94;5005212;28;20201;-77
2021/06/02 08:50:19;;;;;;;1.45;1.33;;;;;;;20.58;52.29;101049.06;5003550;28;20545;-78
2021/06/02 08:52:48;;;;;;;2.58;1.40;;;;;;;20.74;53.83;101049.41;5004624;28;20268;-77
2021/06/02 08:55:15;;;;;;;2.22;1.40;;;;;;;20.25;53.56;101049.13;5002198;28;20185;-78
2021/06/02 08:57:43;;;;;;;2.72;1.55;;;;;;;20.37;54.37;101050.09;5015639;28;20207;-77
2021/06/02 09:00:17;;;;;;;2.22;1.48;;;;;;;20.30;54.53;101054.50;4996794;28;20173;-78
2021/06/02 09:02:53;;;;;;;1.73;1.58;;;;;;;20.14;55.27;101058.88;5011393;28;20196;-77
2021/06/02 09:05:18;;;;;;;2.42;1.48;;;;;;;19.81;55.89;101057.72;4995977;28;20193;-79
2021/06/02 09:07:44;;;;;;;2.88;1.70;;;;;;;19.66;55.77;101057.38;4994631;28;20213;-77
2021/06/02 09:10:14;;;;;;;3.00;1.98;;;;;;;19.63;57.48;101060.75;4995461;28;20196;-78
2021/06/02 09:12:45;;;;;;;1.40;1.20;;;;;;;19.71;57.63;101058.03;5011695;28;20230;-77
2021/06/02 09:15:13;;;;;;;6.43;1.80;;;;;;;19.39;57.52;101054.06;4994611;28;20786;-77
2021/06/02 09:17:49;;;;;;;4.97;1.80;;;;;;;19.57;58.12;101058.47;4993833;28;20290;-77
2021/06/02 09:20:35;;;;;;;2.95;1.85;;;;;;;19.58;60.25;101057.34;5025697;28;20180;-76
2021/06/02 09:23:36;;;;;;;4.38;1.95;;;;;;;19.66;59.99;101054.59;5025521;28;20185;-77
2021/06/02 09:26:18;;;;;;;2.85;1.88;;;;;;;19.64;59.55;101058.81;5007552;28;20282;-78
2021/06/02 09:29:00;;;;;;;2.88;2.20;;;;;;;19.80;59.91;101052.53;5011294;28;20185;-77
2021/06/02 09:31:32;;;;;;;3.45;2.20;;;;;;;19.98;60.92;101057.75;5025778;28;20810;-78
2021/06/02 09:33:59;;;;;;;2.47;1.90;;;;;;;19.75;61.15;101053.47;4996413;28;20654;-78
2021/06/02 09:36:28;;;;;;;2.47;2.15;;;;;;;20.15;60.99;101057.75;5009807;28;20235;-78
2021/06/02 09:38:55;;;;;;;3.45;2.30;;;;;;;20.04;60.61;101059.22;5010982;28;20189;-78
2021/06/02 09:41:21;;;;;;;2.25;2.05;;;;;;;20.29;60.55;101059.22;4977489;28;20228;-77
2021/06/02 09:43:46;;;;;;;3.15;2.45;;;;;;;20.62;60.57;101057.50;4992979;28;20217;-76
2021/06/02 09:46:16;;;;;;;3.78;2.10;;;;;;;20.51;59.50;101057.06;4992633;28;20239;-77
2021/06/02 09:48:57;;;;;;;3.25;2.70;;;;;;;20.40;59.86;101048.63;4993987;28;20181;-78
2021/06/02 09:51:31;;;;;;;3.95;2.22;;;;;;;20.27;61.18;101046.84;4992091;28;20611;-77
2021/06/02 09:54:02;;;;;;;3.72;2.40;;;;;;;20.70;60.40;101038.19;4994014;28;20258;-77
2021/06/02 09:56:35;;;;;;;3.55;2.35;;;;;;;20.97;59.29;101040.53;4978455;28;20220;-77
2021/06/02 09:59:03;;;;;;;2.33;2.13;;;;;;;20.62;60.83;101052.84;5011684;28;20181;-77
2021/06/02 10:01:58;;;;;;;2.90;2.00;;;;;;;20.80;60.08;101048.88;4992325;28;20805;-77
2021/06/02 10:04:34;;;;;;;3.17;2.13;;;;;;;20.60;59.83;101046.81;4992966;28;20209;-77
2021/06/02 10:07:02;;;;;;;2.53;2.33;;;;;;;20.81;58.99;101039.47;4993434;28;20220;-77
2021/06/02 10:09:32;;;;;;;2.78;2.40;;;;;;;21.19;61.06;101031.97;4978975;28;20195;-77
2021/06/02 10:12:11;;;;;;;2.45;2.20;;;;;;;21.58;58.88;101033.25;4991922;28;20315;-78
2021/06/02 10:14:40;;;;;;;3.95;2.42;;;;;;;21.33;58.94;101036.94;4979612;28;20188;-77
2021/06/02 10:17:24;;;;;;;3.92;2.30;;;;;;;21.25;58.80;101032.28;4962652;28;20233;-77
2021/06/02 10:19:55;;;;;;;5.03;2.25;;;;;;;21.25;58.18;101029.50;4995051;28;20200;-77
2021/06/02 10:22:27;;;;;;;2.75;2.55;;;;;;;21.17;57.70;101053.63;4961591;28;20233;-78
2021/06/02 10:24:55;;;;;;;3.03;2.33;;;;;;;21.33;58.30;101036.94;4994444;28;20647;-78
2021/06/02 10:27:21;;;;;;;2.60;2.10;;;;;;;21.35;56.99;101037.41;4966882;28;20303;-77
2021/06/02 10:29:47;;;;;;;2.13;1.85;;;;;;;21.48;58.39;101038.34;4994353;28;20667;-77
2021/06/02 10:32:18;;;;;;;2.60;2.13;;;;;;;21.44;56.46;101035.44;4960981;28;20646;-77
2021/06/02 10:34:46;;;;;;;3.05;2.17;;;;;;;21.75;57.37;101044.19;4978652;28;20204;-77
2021/06/02 10:37:15;;;;;;;3.15;2.30;;;;;;;21.88;57.76;101030.09;4993088;28;20328;-77
2021/06/02 10:39:44;;;;;;;4.43;2.60;;;;;;;22.24;56.27;101030.31;4978298;28;20182;-77
2021/06/02 10:42:18;;;;;;;3.15;2.47;;;;;;;22.26;55.41;101037.13;4977868;28;20257;-78
2021/06/02 10:44:47;;;;;;;2.80;2.60;;;;;;;22.28;55.25;101031.25;4978640;28;20217;-77
2021/06/02 10:47:19;;;;;;;2.67;2.20;;;;;;;22.58;56.10;101025.22;4994477;28;20261;-77
2021/06/02 10:49:45;;;;;;;3.08;2.45;;;;;;;22.57;55.16;101029.16;4978247;28;20224;-78
2021/06/02 10:52:13;;;;;;;3.92;2.50;;;;;;;22.47;54.24;101024.88;4976801;28;20383;-77
2021/06/02 10:54:42;;;;;;;4.57;2.40;;;;;;;22.00;55.78;101029.38;4995105;28;20200;-77
2021/06/02 10:57:14;;;;;;;3.67;2.50;;;;;;;22.55;56.11;101021.19;5008325;28;20221;-78
2021/06/02 10:59:45;;;;;;;4.03;2.72;;;;;;;22.70;54.13;101011.41;5016998;28;20199;-78
2021/06/02 11:02:36;;;;;;;2.42;2.03;;;;;;;23.30;52.57;100999.25;5032047;28;20273;-78
2021/06/02 11:05:05;;;;;;;3.08;2.67;;;;;;;23.60;53.91;101016.09;5010224;28;20305;-77
2021/06/02 11:07:33;;;;;;;3.97;2.55;;;;;;;23.03;53.72;101024.88;4995581;28;20233;-78
2021/06/02 11:10:08;;;;;;;3.60;2.38;;;;;;;23.31;53.04;101021.06;4997466;28;20184;-77
2021/06/02 11:12:49;;;;;;;3.47;2.33;;;;;;;23.68;52.15;101009.63;5009524;28;20909;-78
2021/06/02 11:15:22;;;;;;;4.97;2.53;;;;;;;23.74;51.37;101008.22;4995207;28;20220;-77
2021/06/02 11:18:05;;;;;;;5.07;2.60;;;;;;;23.26;51.87;101014.97;4981100;28;20295;-77
2021/06/02 11:20:47;;;;;;;2.40;2.20;;;;;;;23.34;52.51;101014.03;5014344;28;20220;-79
2021/06/02 11:23:14;;;;;;;2.90;2.60;;;;;;;23.52;52.32;101007.88;4996640;28;20200;-78
2021/06/02 11:25:42;;;;;;;2.75;2.55;;;;;;;23.75;50.73;101012.59;5001121;28;20220;-78
2021/06/02 11:28:11;;;;;;;3.10;2.33;;;;;;;23.59;52.34;101010.91;5005431;28;20209;-79
2021/06/02 11:30:44;;;;;;;2.38;2.13;;;;;;;23.72;52.44;101018.06;4980660;28;20221;-78
2021/06/02 11:33:11;;;;;;;3.45;2.70;;;;;;;23.90;51.09;101020.22;4995784;28;20189;-78
2021/06/02 11:35:56;;;;;;;4.32;2.65;;;;;;;24.19;51.39;101022.63;4995339;28;20220;-77
2021/06/02 11:38:25;;;;;;;2.72;2.50;;;;;;;24.07;50.33;101014.38;5014695;28;20231;-78
2021/06/02 11:40:51;;;;;;;2.92;2.47;;;;;;;24.21;49.95;101014.75;5005194;28;20221;-77
2021/06/02 11:43:19;;;;;;;4.63;2.30;;;;;;;24.01;51.59;101022.13;5011927;28;20212;-76
2021/06/02 11:45:47;;;;;;;2.60;2.40;;;;;;;24.25;50.79;101008.16;4995371;28;20217;-77
2021/06/02 11:48:25;;;;;;;2.85;2.28;;;;;;;24.13;51.30;101004.63;5012273;28;20593;-77
2021/06/02 11:50:51;;;;;;;2.83;2.35;;;;;;;24.51;50.98;101014.88;4996077;28;20597;-77
2021/06/02 11:53:17;;;;;;;2.45;2.25;;;;;;;24.62;50.05;101004.88;5010707;28;20303;-76
2021/06/02 11:55:42;;;;;;;4.05;2.80;;;;;;;24.77;50.10;101004.88;4978925;28;20738;-77
2021/06/02 11:58:08;;;;;;;3.40;2.30;;;;;;;24.73;50.67;101000.41;4995706;28;20682;-77
2021/06/02 12:00:39;;;;;;;2.47;2.20;;;;;;;24.66;49.50;101000.19;5011228;28;20244;-77
2021/06/02 12:03:12;;;;;;;2.83;2.50;;;;;;;24.89;49.15;101001.19;5011595;28;20192;-78